Time;durP1;ratioP1;P1;durP2;ratioP2;P2;SDS_P1;SDS_P2;PMS_P1;PMS_P2;Temp;Humidity;BMP_temperature;BMP_pressure;BME280_temperature;BME280_humidity;BME280_pressure;Samples;Min_cycle;Max_cycle;Signal;HPM_P1;HPM_P2
2023/03/22 00:01:32;;;;;;;8.43;7.03;;;;;;;;;;5055586;28;20504;-68
2023/03/22 00:03:58;;;;;;;10.23;7.60;;;;;;;;;;5056364;28;20469;-68
2023/03/22 00:06:26;;;;;;;9.60;7.00;;;;;;;;;;5059358;28;20507;-68
2023/03/22 00:08:54;;;;;;;8.37;6.37;;;;;;;;;;5048048;28;20465;-68
2023/03/22 00:11:21;;;;;;;7.93;6.53;;;;;;;;;;5054688;28;20504;-68
2023/03/22 00:13:51;;;;;;;8.13;6.43;;;;;;;;;;5060537;28;20472;-68
2023/03/22 00:16:17;;;;;;;8.27;6.20;;;;;;;;;;5055348;28;20481;-68
2023/03/22 00:18:44;;;;;;;9.30;6.50;;;;;;;;;;5054621;28;20881;-69
2023/03/22 00:21:11;;;;;;;9.07;8.27;;;;;;;;;;5060004;28;20472;-68
2023/03/22 00:23:39;;;;;;;8.80;6.77;;;;;;;;;;5060052;28;20457;-69
2023/03/22 00:26:05;;;;;;;8.73;6.57;;;;;;;;;;5057845;28;20512;-68
2023/03/22 00:28:32;;;;;;;7.37;5.77;;;;;;;;;;5054971;28;20470;-68
2023/03/22 00:30:59;;;;;;;10.87;6.47;;;;;;;;;;5058119;28;20559;-67
2023/03/22 00:33:26;;;;;;;10.33;6.20;;;;;;;;;;5048525;28;20493;-67
2023/03/22 00:35:53;;;;;;;10.77;6.57;;;;;;;;;;5060419;28;20512;-68
2023/03/22 00:38:19;;;;;;;7.97;6.70;;;;;;;;;;5052561;28;20465;-68
2023/03/22 00:40:47;;;;;;;10.60;6.43;;;;;;;;;;5058546;28;20484;-68
2023/03/22 00:43:13;;;;;;;11.73;6.17;;;;;;;;;;5059247;28;20521;-67
2023/03/22 00:45:40;;;;;;;8.10;6.23;;;;;;;;;;5058460;28;21077;-68
2023/03/22 00:48:07;;;;;;;8.03;6.03;;;;;;;;;;5056394;28;20450;-67
2023/03/22 00:50:33;;;;;;;11.70;7.80;;;;;;;;;;5059617;28;20512;-67
2023/03/22 00:53:00;;;;;;;9.90;7.03;;;;;;;;;;5059782;28;20457;-67
2023/03/22 00:55:26;;;;;;;10.80;7.40;;;;;;;;;;5060084;28;20471;-68
2023/03/22 00:57:54;;;;;;;10.07;6.60;;;;;;;;;;5058800;28;20442;-68
2023/03/22 01:00:21;;;;;;;8.57;6.77;;;;;;;;;;5056817;28;20500;-68
2023/03/22 01:02:47;;;;;;;12.00;7.07;;;;;;;;;;5059890;28;20458;-68
2023/03/22 01:05:14;;;;;;;8.63;6.20;;;;;;;;;;5058164;28;21005;-68
2023/03/22 01:07:41;;;;;;;12.17;7.40;;;;;;;;;;5060055;28;20484;-68
2023/03/22 01:10:08;;;;;;;8.47;7.27;;;;;;;;;;5054584;28;20453;-68
2023/03/22 01:12:34;;;;;;;12.53;7.13;;;;;;;;;;5052615;28;20489;-69
2023/03/22 01:15:02;;;;;;;8.83;6.30;;;;;;;;;;5055768;28;20581;-68
2023/03/22 01:17:29;;;;;;;8.93;6.27;;;;;;;;;;5059612;28;20485;-69
2023/03/22 01:19:55;;;;;;;8.77;6.97;;;;;;;;;;5058842;28;21049;-69
2023/03/22 01:22:21;;;;;;;9.23;6.20;;;;;;;;;;5054057;28;20489;-69
2023/03/22 01:24:48;;;;;;;9.57;6.40;;;;;;;;;;5060287;28;20509;-68
2023/03/22 01:27:15;;;;;;;10.80;7.07;;;;;;;;;;5050465;28;20525;-69
2023/03/22 01:29:41;;;;;;;10.77;7.13;;;;;;;;;;5059260;28;20461;-69
2023/03/22 01:32:09;;;;;;;9.40;7.23;;;;;;;;;;5062571;28;20511;-68
2023/03/22 01:34:35;;;;;;;9.47;6.70;;;;;;;;;;5062403;28;20487;-69
2023/03/22 01:37:02;;;;;;;11.30;7.00;;;;;;;;;;5058693;28;20786;-68
2023/03/22 01:39:28;;;;;;;12.73;7.13;;;;;;;;;;5064276;28;20500;-69
2023/03/22 01:41:54;;;;;;;9.77;7.53;;;;;;;;;;5062429;28;20513;-69
2023/03/22 01:44:22;;;;;;;10.37;6.93;;;;;;;;;;5062181;28;20488;-68
2023/03/22 01:46:49;;;;;;;9.60;6.63;;;;;;;;;;5061119;28;20507;-70
2023/03/22 01:49:19;;;;;;;9.13;7.47;;;;;;;;;;5063730;28;20981;-70
2023/03/22 01:51:48;;;;;;;10.93;7.10;;;;;;;;;;5062293;28;20511;-69
2023/03/22 01:54:17;;;;;;;7.10;6.40;;;;;;;;;;5061196;28;20511;-70
2023/03/22 01:56:44;;;;;;;12.40;7.53;;;;;;;;;;5061775;28;20535;-69
2023/03/22 01:59:12;;;;;;;11.40;7.10;;;;;;;;;;5060184;28;20484;-69
2023/03/22 02:01:38;;;;;;;14.20;6.87;;;;;;;;;;5059886;28;20492;-67
2023/03/22 02:04:06;;;;;;;8.53;6.93;;;;;;;;;;5057352;28;20502;-69
2023/03/22 02:06:36;;;;;;;10.83;7.13;;;;;;;;;;5062164;28;20477;-68
2023/03/22 02:09:03;;;;;;;9.80;7.60;;;;;;;;;;5056462;28;20461;-68
2023/03/22 02:11:32;;;;;;;10.47;6.93;;;;;;;;;;5061286;28;20472;-70
2023/03/22 02:14:11;;;;;;;12.47;7.67;;;;;;;;;;5060976;28;20480;-70
2023/03/22 02:16:42;;;;;;;7.63;6.20;;;;;;;;;;5057237;28;20523;-70
2023/03/22 02:19:29;;;;;;;8.10;7.00;;;;;;;;;;5063568;28;20484;-70
2023/03/22 02:22:13;;;;;;;9.77;6.20;;;;;;;;;;5052695;28;20486;-70
2023/03/22 02:24:55;;;;;;;10.87;7.07;;;;;;;;;;5049194;28;20452;-70
2023/03/22 02:27:54;;;;;;;9.90;6.07;;;;;;;;;;5062247;28;20481;-70
2023/03/22 02:30:29;;;;;;;12.27;7.17;;;;;;;;;;5036833;28;20980;-70
2023/03/22 02:33:09;;;;;;;8.30;6.77;;;;;;;;;;5034686;28;21322;-69
2023/03/22 02:35:47;;;;;;;9.93;7.53;;;;;;;;;;5059193;28;20509;-69
2023/03/22 02:38:41;;;;;;;8.90;6.73;;;;;;;;;;5061096;28;20492;-70
2023/03/22 02:41:11;;;;;;;10.10;7.40;;;;;;;;;;5055280;28;20629;-70
2023/03/22 02:43:45;;;;;;;13.80;7.10;;;;;;;;;;5059977;28;20915;-70
2023/03/22 02:46:14;;;;;;;8.37;6.37;;;;;;;;;;5061329;28;20489;-69
2023/03/22 02:48:44;;;;;;;7.53;6.80;;;;;;;;;;5062464;28;20495;-69
2023/03/22 02:51:13;;;;;;;6.70;6.00;;;;;;;;;;5055865;28;20496;-70
2023/03/22 02:53:42;;;;;;;12.10;7.10;;;;;;;;;;5059699;28;20485;-69
2023/03/22 02:56:12;;;;;;;10.00;6.80;;;;;;;;;;5053511;28;20548;-70
2023/03/22 02:58:44;;;;;;;8.70;5.97;;;;;;;;;;5061262;28;20476;-69
2023/03/22 03:01:13;;;;;;;10.57;6.40;;;;;;;;;;5058413;28;20492;-70
2023/03/22 03:03:39;;;;;;;12.83;6.43;;;;;;;;;;5058614;28;20504;-69
2023/03/22 03:06:08;;;;;;;11.90;6.73;;;;;;;;;;5058750;28;20564;-69
2023/03/22 03:08:36;;;;;;;8.87;5.73;;;;;;;;;;5056440;28;20897;-69
2023/03/22 03:11:02;;;;;;;9.17;6.37;;;;;;;;;;5054374;28;20503;-69
2023/03/22 03:13:30;;;;;;;10.10;6.10;;;;;;;;;;5047063;28;20492;-70
2023/03/22 03:15:59;;;;;;;9.40;6.33;;;;;;;;;;5061790;28;20532;-69
2023/03/22 03:18:39;;;;;;;7.70;5.90;;;;;;;;;;5045812;28;20628;-69
2023/03/22 03:21:08;;;;;;;9.67;5.90;;;;;;;;;;5051102;28;20668;-69
2023/03/22 03:23:39;;;;;;;7.70;6.50;;;;;;;;;;5060110;28;20461;-69
2023/03/22 03:26:09;;;;;;;10.07;6.00;;;;;;;;;;5061729;28;20898;-68
2023/03/22 03:28:42;;;;;;;9.80;6.67;;;;;;;;;;5060473;28;20477;-69
2023/03/22 03:31:15;;;;;;;8.60;6.23;;;;;;;;;;5055013;28;20488;-68
2023/03/22 03:33:44;;;;;;;11.13;6.70;;;;;;;;;;5056401;28;20521;-68
2023/03/22 03:36:11;;;;;;;7.93;6.40;;;;;;;;;;5057550;28;20484;-68
2023/03/22 03:38:39;;;;;;;7.83;5.90;;;;;;;;;;5060024;28;20497;-68
2023/03/22 03:41:07;;;;;;;7.30;6.20;;;;;;;;;;5058723;28;20481;-69
2023/03/22 03:43:34;;;;;;;9.47;5.90;;;;;;;;;;5052718;28;20469;-68
2023/03/22 03:46:02;;;;;;;12.63;6.60;;;;;;;;;;5061197;28;20557;-67
2023/03/22 03:48:30;;;;;;;7.03;6.30;;;;;;;;;;5055288;28;20493;-67
2023/03/22 03:50:56;;;;;;;7.60;6.60;;;;;;;;;;5061039;28;21050;-68
2023/03/22 03:53:23;;;;;;;7.60;6.67;;;;;;;;;;5060799;28;20449;-68
2023/03/22 03:55:49;;;;;;;10.33;6.40;;;;;;;;;;5051698;28;20501;-68
2023/03/22 03:58:16;;;;;;;7.93;6.57;;;;;;;;;;5054757;28;20496;-68
2023/03/22 04:00:42;;;;;;;9.30;7.10;;;;;;;;;;5069135;28;20507;-68
2023/03/22 04:03:10;;;;;;;8.83;6.50;;;;;;;;;;5081102;28;20488;-68
2023/03/22 04:05:36;;;;;;;14.03;7.50;;;;;;;;;;5080675;28;20567;-67
2023/03/22 04:08:03;;;;;;;8.80;7.30;;;;;;;;;;5080043;28;20710;-67
2023/03/22 04:10:29;;;;;;;11.47;7.20;;;;;;;;;;5080181;28;20550;-68
2023/03/22 04:12:56;;;;;;;11.30;7.70;;;;;;;;;;5080779;28;20488;-68
2023/03/22 04:15:23;;;;;;;14.03;8.40;;;;;;;;;;5081085;28;20452;-68
2023/03/22 04:17:49;;;;;;;12.47;7.87;;;;;;;;;;5080950;28;20476;-69
2023/03/22 04:20:18;;;;;;;11.23;7.10;;;;;;;;;;5079715;28;20940;-68
2023/03/22 04:22:45;;;;;;;9.53;6.67;;;;;;;;;;5080544;28;20459;-67
2023/03/22 04:25:16;;;;;;;9.93;7.40;;;;;;;;;;5080447;28;20456;-68
2023/03/22 04:27:43;;;;;;;10.40;7.70;;;;;;;;;;5080114;28;20472;-67
2023/03/22 04:30:11;;;;;;;8.20;6.97;;;;;;;;;;5080346;28;20543;-69
2023/03/22 04:32:38;;;;;;;10.30;7.80;;;;;;;;;;5080107;28;20496;-69
2023/03/22 04:35:05;;;;;;;10.97;6.93;;;;;;;;;;5080996;28;20519;-69
2023/03/22 04:37:33;;;;;;;8.53;6.70;;;;;;;;;;5079028;28;20488;-69
2023/03/22 04:39:59;;;;;;;9.20;7.03;;;;;;;;;;5080199;28;20468;-70
2023/03/22 04:42:26;;;;;;;9.30;7.93;;;;;;;;;;5079081;28;20510;-70
2023/03/22 04:44:52;;;;;;;10.17;8.03;;;;;;;;;;5080358;28;20536;-69
2023/03/22 04:47:19;;;;;;;12.20;7.87;;;;;;;;;;5079838;28;20690;-68
2023/03/22 04:49:45;;;;;;;10.67;7.60;;;;;;;;;;5080466;28;20460;-67
2023/03/22 04:52:11;;;;;;;10.90;8.00;;;;;;;;;;5078878;28;20571;-71
2023/03/22 04:54:40;;;;;;;10.33;7.50;;;;;;;;;;5078696;28;20487;-70
2023/03/22 04:57:06;;;;;;;8.90;7.37;;;;;;;;;;5078748;28;20610;-70
2023/03/22 04:59:32;;;;;;;11.93;8.40;;;;;;;;;;5079821;28;20472;-70
2023/03/22 05:01:59;;;;;;;10.40;8.03;;;;;;;;;;5079409;28;20543;-70
2023/03/22 05:04:26;;;;;;;11.97;8.33;;;;;;;;;;5079437;28;20460;-71
2023/03/22 05:06:52;;;;;;;12.83;8.13;;;;;;;;;;5077793;28;20476;-69
2023/03/22 05:09:19;;;;;;;11.00;8.10;;;;;;;;;;5080207;28;20452;-70
2023/03/22 05:11:47;;;;;;;11.73;8.90;;;;;;;;;;5079530;28;20543;-65
2023/03/22 05:14:13;;;;;;;13.67;8.77;;;;;;;;;;5080349;28;20456;-69
2023/03/22 05:16:40;;;;;;;12.80;8.70;;;;;;;;;;5079921;28;20504;-69
2023/03/22 05:19:12;;;;;;;14.07;8.50;;;;;;;;;;5080557;28;20457;-69
2023/03/22 05:21:39;;;;;;;10.90;7.93;;;;;;;;;;5079070;28;20484;-69
2023/03/22 05:24:07;;;;;;;16.67;8.73;;;;;;;;;;5078270;28;20473;-69
2023/03/22 05:26:36;;;;;;;11.10;8.57;;;;;;;;;;5074185;28;20567;-72
2023/03/22 05:29:05;;;;;;;13.73;8.90;;;;;;;;;;5078755;28;20517;-72
2023/03/22 05:31:33;;;;;;;14.30;8.90;;;;;;;;;;5077283;28;20476;-69
2023/03/22 05:34:00;;;;;;;9.20;8.07;;;;;;;;;;5078625;28;20806;-72
2023/03/22 05:36:28;;;;;;;12.37;8.57;;;;;;;;;;5085260;28;20472;-70
2023/03/22 05:38:55;;;;;;;11.90;9.20;;;;;;;;;;5078826;28;20523;-69
2023/03/22 05:41:21;;;;;;;9.33;7.73;;;;;;;;;;5078288;28;20478;-70
2023/03/22 05:43:47;;;;;;;11.83;8.57;;;;;;;;;;5079084;28;20495;-70
2023/03/22 05:46:15;;;;;;;15.07;8.77;;;;;;;;;;5078311;28;20510;-70
2023/03/22 05:48:41;;;;;;;8.93;7.57;;;;;;;;;;5079075;28;20452;-71
2023/03/22 05:51:09;;;;;;;12.40;8.07;;;;;;;;;;5078053;28;20483;-70
2023/03/22 05:53:36;;;;;;;13.20;8.70;;;;;;;;;;5075726;28;20547;-70
2023/03/22 05:56:02;;;;;;;13.40;8.70;;;;;;;;;;5077320;28;20956;-69
2023/03/22 05:58:29;;;;;;;11.20;7.57;;;;;;;;;;5078645;28;20468;-68
2023/03/22 06:00:56;;;;;;;11.67;7.77;;;;;;;;;;5077413;28;20480;-69
2023/03/22 06:03:24;;;;;;;13.93;7.53;;;;;;;;;;5078146;28;20981;-68
2023/03/22 06:05:50;;;;;;;8.90;7.97;;;;;;;;;;5078086;28;20551;-69
2023/03/22 06:08:16;;;;;;;10.47;7.70;;;;;;;;;;5078120;28;20903;-69
2023/03/22 06:10:43;;;;;;;12.03;7.40;;;;;;;;;;5072891;28;20474;-69
2023/03/22 06:13:09;;;;;;;13.03;7.57;;;;;;;;;;5081692;28;20488;-69
2023/03/22 06:15:36;;;;;;;11.37;7.30;;;;;;;;;;5076611;28;20935;-69
2023/03/22 06:18:02;;;;;;;9.10;7.90;;;;;;;;;;5081719;28;21050;-69
2023/03/22 06:20:30;;;;;;;9.23;7.10;;;;;;;;;;5082542;28;20495;-70
2023/03/22 06:22:56;;;;;;;10.63;6.97;;;;;;;;;;5081511;28;20459;-70
2023/03/22 06:25:23;;;;;;;6.77;6.07;;;;;;;;;;5076594;28;20492;-70
2023/03/22 06:27:49;;;;;;;8.80;6.93;;;;;;;;;;5081556;28;20535;-70
2023/03/22 06:30:16;;;;;;;11.73;6.47;;;;;;;;;;5074509;28;20451;-70
2023/03/22 06:32:42;;;;;;;11.20;6.20;;;;;;;;;;5075865;28;20503;-71
2023/03/22 06:35:09;;;;;;;9.10;6.30;;;;;;;;;;5081506;28;20886;-69
2023/03/22 06:37:37;;;;;;;7.73;6.10;;;;;;;;;;5068889;28;20483;-69
2023/03/22 06:40:04;;;;;;;7.60;6.37;;;;;;;;;;5081925;28;20479;-69
2023/03/22 06:42:30;;;;;;;9.13;6.67;;;;;;;;;;5080515;28;20521;-70
2023/03/22 06:44:57;;;;;;;7.70;6.50;;;;;;;;;;5082127;28;20447;-69
2023/03/22 06:47:23;;;;;;;9.23;5.83;;;;;;;;;;5080735;28;20559;-70
2023/03/22 06:49:50;;;;;;;10.80;6.40;;;;;;;;;;5081776;28;20455;-70
2023/03/22 06:52:16;;;;;;;12.50;6.83;;;;;;;;;;5081042;28;20785;-71
2023/03/22 06:54:44;;;;;;;7.00;6.27;;;;;;;;;;5081246;28;20478;-70
2023/03/22 06:57:11;;;;;;;13.13;6.37;;;;;;;;;;5072701;28;20514;-70
2023/03/22 06:59:37;;;;;;;6.00;5.40;;;;;;;;;;5081319;28;20482;-70
2023/03/22 07:02:04;;;;;;;9.70;6.93;;;;;;;;;;5080559;28;20492;-70
2023/03/22 07:04:31;;;;;;;11.33;7.67;;;;;;;;;;5081848;28;20475;-69
2023/03/22 07:06:58;;;;;;;8.13;6.40;;;;;;;;;;5080096;28;20479;-69
2023/03/22 07:09:25;;;;;;;11.57;7.00;;;;;;;;;;5080726;28;20464;-70
2023/03/22 07:11:53;;;;;;;8.60;6.10;;;;;;;;;;5081109;28;20484;-70
2023/03/22 07:14:20;;;;;;;12.37;8.00;;;;;;;;;;5081046;28;20460;-70
2023/03/22 07:16:46;;;;;;;9.17;6.50;;;;;;;;;;5080565;28;20485;-70
2023/03/22 07:19:13;;;;;;;9.60;6.07;;;;;;;;;;5080916;28;20979;-70
2023/03/22 07:21:40;;;;;;;13.00;7.63;;;;;;;;;;5074063;28;20490;-69
2023/03/22 07:24:08;;;;;;;13.77;6.60;;;;;;;;;;5079564;28;20487;-70
2023/03/22 07:26:34;;;;;;;7.70;5.57;;;;;;;;;;5080430;28;20479;-70
2023/03/22 07:29:02;;;;;;;9.50;6.70;;;;;;;;;;5080811;28;20456;-69
2023/03/22 07:31:28;;;;;;;7.80;5.50;;;;;;;;;;5078768;28;20549;-70
2023/03/22 07:33:55;;;;;;;10.53;6.47;;;;;;;;;;5081362;28;20478;-69
2023/03/22 07:36:24;;;;;;;8.47;6.40;;;;;;;;;;5080694;28;20479;-69
2023/03/22 07:38:50;;;;;;;9.43;5.73;;;;;;;;;;5079987;28;20981;-70
2023/03/22 07:41:17;;;;;;;7.70;6.87;;;;;;;;;;5080436;28;20475;-69
2023/03/22 07:43:43;;;;;;;9.63;6.00;;;;;;;;;;5081543;28;20459;-69
2023/03/22 07:46:11;;;;;;;7.97;5.83;;;;;;;;;;5078896;28;20500;-67
2023/03/22 07:48:39;;;;;;;9.97;6.53;;;;;;;;;;5078677;28;20502;-67
2023/03/22 07:51:06;;;;;;;11.47;6.30;;;;;;;;;;5079236;28;20480;-67
2023/03/22 07:53:32;;;;;;;11.57;5.97;;;;;;;;;;5079620;28;20559;-67
2023/03/22 07:55:59;;;;;;;11.90;5.80;;;;;;;;;;5079560;28;20529;-68
2023/03/22 07:58:25;;;;;;;13.20;5.70;;;;;;;;;;5080416;28;20453;-67
2023/03/22 08:00:51;;;;;;;9.40;5.90;;;;;;;;;;5077646;28;20980;-68
2023/03/22 08:03:20;;;;;;;12.53;5.97;;;;;;;;;;5080379;28;20551;-68
2023/03/22 08:05:47;;;;;;;12.03;5.80;;;;;;;;;;5079567;28;20578;-68
2023/03/22 08:08:14;;;;;;;8.00;5.47;;;;;;;;;;5079200;28;20496;-68
2023/03/22 08:10:40;;;;;;;14.87;6.70;;;;;;;;;;5078412;28;20474;-68
2023/03/22 08:13:07;;;;;;;7.83;5.53;;;;;;;;;;5080488;28;20484;-68
2023/03/22 08:15:36;;;;;;;5.50;4.70;;;;;;;;;;5078069;28;20472;-67
2023/03/22 08:18:02;;;;;;;8.43;5.70;;;;;;;;;;5080694;28;20480;-68
2023/03/22 08:20:30;;;;;;;7.53;5.10;;;;;;;;;;5079545;28;20560;-68
2023/03/22 08:22:57;;;;;;;6.80;4.30;;;;;;;;;;5081449;28;20558;-68
2023/03/22 08:25:23;;;;;;;6.50;5.33;;;;;;;;;;5070941;28;20509;-68
2023/03/22 08:27:50;;;;;;;8.97;5.23;;;;;;;;;;5077568;28;20511;-68
2023/03/22 08:30:16;;;;;;;7.37;4.70;;;;;;;;;;5077905;28;20597;-68
2023/03/22 08:32:42;;;;;;;8.10;4.70;;;;;;;;;;5081259;28;20483;-68
2023/03/22 08:35:09;;;;;;;8.33;4.67;;;;;;;;;;5077923;28;20452;-67
2023/03/22 08:37:38;;;;;;;5.40;4.87;;;;;;;;;;5078749;28;20670;-67
2023/03/22 08:40:07;;;;;;;7.53;5.20;;;;;;;;;;5078787;28;20471;-67
2023/03/22 08:42:36;;;;;;;7.57;4.73;;;;;;;;;;5077028;28;20817;-66
2023/03/22 08:45:03;;;;;;;7.50;4.90;;;;;;;;;;5079874;28;20452;-66
2023/03/22 08:47:30;;;;;;;8.90;5.07;;;;;;;;;;5077895;28;20972;-66
2023/03/22 08:49:56;;;;;;;11.87;4.87;;;;;;;;;;5079799;28;20457;-66
2023/03/22 08:52:23;;;;;;;7.60;4.50;;;;;;;;;;5077710;28;20516;-66
2023/03/22 08:54:53;;;;;;;7.13;3.93;;;;;;;;;;5078567;28;20456;-66
2023/03/22 08:57:22;;;;;;;10.67;4.47;;;;;;;;;;5079799;28;20476;-66
2023/03/22 08:59:51;;;;;;;8.43;4.40;;;;;;;;;;5081111;28;20504;-67
2023/03/22 09:02:17;;;;;;;6.73;4.17;;;;;;;;;;5060180;28;20488;-67
2023/03/22 09:04:43;;;;;;;8.70;3.70;;;;;;;;;;5070413;28;20484;-67
2023/03/22 09:07:10;;;;;;;6.33;4.10;;;;;;;;;;5063157;28;20522;-66
2023/03/22 09:09:37;;;;;;;6.23;3.47;;;;;;;;;;5064621;28;20485;-67
2023/03/22 09:12:05;;;;;;;5.07;3.03;;;;;;;;;;5058213;28;20476;-66
2023/03/22 09:14:31;;;;;;;7.27;4.17;;;;;;;;;;5059390;28;20457;-66
2023/03/22 09:16:58;;;;;;;5.30;3.50;;;;;;;;;;5061131;28;20893;-66
2023/03/22 09:19:24;;;;;;;6.07;3.77;;;;;;;;;;5063775;28;20487;-68
2023/03/22 09:21:51;;;;;;;8.73;4.60;;;;;;;;;;5063619;28;20508;-65
2023/03/22 09:24:18;;;;;;;6.43;3.50;;;;;;;;;;5057471;28;20460;-66
2023/03/22 09:26:44;;;;;;;9.30;4.33;;;;;;;;;;5061994;28;20511;-69
2023/03/22 09:29:13;;;;;;;9.13;4.13;;;;;;;;;;5062497;28;20473;-69
2023/03/22 09:31:40;;;;;;;6.60;3.70;;;;;;;;;;5057989;28;20499;-69
2023/03/22 09:34:06;;;;;;;7.20;3.20;;;;;;;;;;5059967;28;20465;-67
2023/03/22 09:36:33;;;;;;;6.50;3.33;;;;;;;;;;5059582;28;20473;-67
2023/03/22 09:38:59;;;;;;;8.43;4.23;;;;;;;;;;5064321;28;20905;-69
2023/03/22 09:41:31;;;;;;;6.90;3.63;;;;;;;;;;5062762;28;20469;-67
2023/03/22 09:43:59;;;;;;;6.77;3.80;;;;;;;;;;5056512;28;20544;-68
2023/03/22 09:46:29;;;;;;;4.43;3.63;;;;;;;;;;5070280;28;20518;-68
2023/03/22 09:48:57;;;;;;;8.93;4.20;;;;;;;;;;5057885;28;20955;-69
2023/03/22 09:51:28;;;;;;;5.27;3.13;;;;;;;;;;5065044;28;20541;-69
2023/03/22 09:53:55;;;;;;;5.97;3.23;;;;;;;;;;5068267;28;20444;-68
2023/03/22 09:56:23;;;;;;;4.60;3.03;;;;;;;;;;5075172;28;20515;-67
2023/03/22 09:58:52;;;;;;;3.97;2.50;;;;;;;;;;5066170;28;20451;-65
2023/03/22 10:01:22;;;;;;;9.33;2.93;;;;;;;;;;5069119;28;20491;-66
2023/03/22 10:04:09;;;;;;;4.93;3.00;;;;;;;;;;5079264;28;20486;-67
2023/03/22 10:06:36;;;;;;;7.33;3.27;;;;;;;;;;5081627;28;20484;-66
2023/03/22 10:09:06;;;;;;;6.20;2.40;;;;;;;;;;5082300;28;20524;-67
2023/03/22 10:11:37;;;;;;;7.03;2.80;;;;;;;;;;5081865;28;20533;-68
2023/03/22 10:14:10;;;;;;;5.80;2.00;;;;;;;;;;5082215;28;20490;-68
2023/03/22 10:16:37;;;;;;;6.10;2.30;;;;;;;;;;5081814;28;21019;-68
2023/03/22 10:19:08;;;;;;;7.47;2.50;;;;;;;;;;5083006;28;20456;-67
2023/03/22 10:21:35;;;;;;;4.90;2.50;;;;;;;;;;5079212;28;20558;-67
2023/03/22 10:24:04;;;;;;;8.00;2.50;;;;;;;;;;5081423;28;20837;-67
2023/03/22 10:26:34;;;;;;;7.17;2.70;;;;;;;;;;5086387;28;20467;-67
2023/03/22 10:29:02;;;;;;;8.27;2.90;;;;;;;;;;5083392;28;20545;-66
2023/03/22 10:31:29;;;;;;;6.47;2.80;;;;;;;;;;5080478;28;20479;-67
2023/03/22 10:33:58;;;;;;;4.10;2.50;;;;;;;;;;5082502;28;20498;-66
2023/03/22 10:36:29;;;;;;;7.80;3.40;;;;;;;;;;5080838;28;20497;-67
2023/03/22 10:38:58;;;;;;;9.47;2.67;;;;;;;;;;5080224;28;20468;-67
2023/03/22 10:41:25;;;;;;;2.90;2.20;;;;;;;;;;5080615;28;20574;-67
2023/03/22 10:43:53;;;;;;;4.70;2.27;;;;;;;;;;5081869;28;20590;-67
2023/03/22 10:46:20;;;;;;;5.97;3.00;;;;;;;;;;5081444;28;20483;-67
2023/03/22 10:48:48;;;;;;;7.27;2.27;;;;;;;;;;5081619;28;20515;-68
2023/03/22 10:51:18;;;;;;;5.43;2.67;;;;;;;;;;5080394;28;20519;-68
2023/03/22 10:53:47;;;;;;;6.23;2.70;;;;;;;;;;5080031;28;20464;-67
2023/03/22 10:56:15;;;;;;;5.17;3.00;;;;;;;;;;5081645;28;20517;-67
2023/03/22 10:58:42;;;;;;;3.20;2.63;;;;;;;;;;5081030;28;20448;-67
2023/03/22 11:01:10;;;;;;;4.40;3.40;;;;;;;;;;5081300;28;20509;-67
2023/03/22 11:03:37;;;;;;;5.00;2.90;;;;;;;;;;5079602;28;20495;-70
2023/03/22 11:06:05;;;;;;;3.17;2.87;;;;;;;;;;5080521;28;20484;-69
2023/03/22 11:08:39;;;;;;;4.50;2.50;;;;;;;;;;5081170;28;20515;-70
2023/03/22 11:11:07;;;;;;;4.20;2.60;;;;;;;;;;5081343;28;20988;-70
2023/03/22 11:13:33;;;;;;;4.97;2.60;;;;;;;;;;5079155;28;20490;-70
2023/03/22 11:16:01;;;;;;;5.90;2.43;;;;;;;;;;5083084;28;20490;-69
2023/03/22 11:18:30;;;;;;;3.80;2.50;;;;;;;;;;5079879;28;20440;-69
2023/03/22 11:20:58;;;;;;;4.40;2.33;;;;;;;;;;5078939;28;20468;-69
2023/03/22 11:23:25;;;;;;;5.77;2.77;;;;;;;;;;5080068;28;20448;-70
2023/03/22 11:25:55;;;;;;;4.17;2.67;;;;;;;;;;5078570;28;20526;-69
2023/03/22 11:28:25;;;;;;;5.93;2.40;;;;;;;;;;5073760;28;20488;-69
2023/03/22 11:31:00;;;;;;;3.90;2.53;;;;;;;;;;5079788;28;20500;-69
2023/03/22 11:33:26;;;;;;;4.50;2.67;;;;;;;;;;5080977;28;20483;-69
2023/03/22 11:35:54;;;;;;;5.07;2.70;;;;;;;;;;5080033;28;20475;-70
2023/03/22 11:38:29;;;;;;;4.17;2.73;;;;;;;;;;5080483;28;20448;-69
2023/03/22 11:40:58;;;;;;;6.10;2.80;;;;;;;;;;5080364;28;20471;-69
2023/03/22 11:43:27;;;;;;;6.90;3.10;;;;;;;;;;5080671;28;20493;-69
2023/03/22 11:45:55;;;;;;;5.23;2.97;;;;;;;;;;5079373;28;20484;-69
2023/03/22 11:48:22;;;;;;;4.97;2.80;;;;;;;;;;5077645;28;20512;-69
2023/03/22 11:50:52;;;;;;;6.10;3.10;;;;;;;;;;5080380;28;20511;-69
2023/03/22 11:53:20;;;;;;;8.00;3.13;;;;;;;;;;5076850;28;20468;-69
2023/03/22 11:55:47;;;;;;;6.60;3.43;;;;;;;;;;5086749;28;20505;-69
2023/03/22 11:58:22;;;;;;;8.03;3.50;;;;;;;;;;5079962;28;20479;-69
2023/03/22 12:00:51;;;;;;;6.40;2.97;;;;;;;;;;5080157;28;20478;-69
2023/03/22 12:03:19;;;;;;;5.27;3.40;;;;;;;;;;5080862;28;20501;-70
2023/03/22 12:05:48;;;;;;;4.53;3.13;;;;;;;;;;5078836;28;20503;-70
2023/03/22 12:08:17;;;;;;;4.70;3.70;;;;;;;;;;5075132;28;20553;-70
2023/03/22 12:10:47;;;;;;;3.50;2.70;;;;;;;;;;5078948;28;20479;-70
2023/03/22 12:13:15;;;;;;;5.30;3.70;;;;;;;;;;5078927;28;20456;-66
2023/03/22 12:15:47;;;;;;;4.23;3.27;;;;;;;;;;5078542;28;20518;-66
2023/03/22 12:18:16;;;;;;;5.70;3.00;;;;;;;;;;5079493;28;20501;-66
2023/03/22 12:20:47;;;;;;;5.90;3.33;;;;;;;;;;5080686;28;20490;-66
2023/03/22 12:23:15;;;;;;;3.90;3.40;;;;;;;;;;5084930;28;20460;-66
2023/03/22 12:25:44;;;;;;;5.37;3.17;;;;;;;;;;5088138;28;20555;-67
2023/03/22 12:28:15;;;;;;;4.00;3.00;;;;;;;;;;5085518;28;20502;-66
2023/03/22 12:30:43;;;;;;;5.50;3.07;;;;;;;;;;5069755;28;20472;-66
2023/03/22 12:33:12;;;;;;;4.50;2.67;;;;;;;;;;5079345;28;20479;-66
2023/03/22 12:35:42;;;;;;;4.83;2.90;;;;;;;;;;5078389;28;20499;-66
2023/03/22 12:38:12;;;;;;;6.80;2.37;;;;;;;;;;5076334;28;20498;-66
2023/03/22 12:40:40;;;;;;;6.90;2.60;;;;;;;;;;5078767;28;20506;-66
2023/03/22 12:43:14;;;;;;;5.13;2.23;;;;;;;;;;5078661;28;20542;-65
2023/03/22 12:45:43;;;;;;;6.63;2.60;;;;;;;;;;5078820;28;20476;-66
2023/03/22 12:48:13;;;;;;;3.30;2.20;;;;;;;;;;5079999;28;20502;-65
2023/03/22 12:50:42;;;;;;;4.73;2.50;;;;;;;;;;5079025;28;20503;-66
2023/03/22 12:53:11;;;;;;;3.57;2.30;;;;;;;;;;5078487;28;21141;-66
2023/03/22 12:55:38;;;;;;;5.83;2.20;;;;;;;;;;5077796;28;20868;-66
2023/03/22 12:58:06;;;;;;;3.47;2.37;;;;;;;;;;5078618;28;20456;-66
2023/03/22 13:00:35;;;;;;;3.90;2.40;;;;;;;;;;5065606;28;20489;-65
2023/03/22 13:03:07;;;;;;;4.60;2.30;;;;;;;;;;5057986;28;20739;-65
2023/03/22 13:05:34;;;;;;;4.70;2.43;;;;;;;;;;5057052;28;20510;-66
2023/03/22 13:08:04;;;;;;;3.67;2.53;;;;;;;;;;5058150;28;20484;-66
2023/03/22 13:10:55;;;;;;;7.97;2.33;;;;;;;;;;5059031;28;20575;-65
2023/03/22 13:13:48;;;;;;;9.83;4.13;;;;;;;;;;5054540;28;20515;-65
2023/03/22 13:16:21;;;;;;;6.70;3.17;;;;;;;;;;5033632;28;20489;-66
2023/03/22 13:19:11;;;;;;;4.53;2.03;;;;;;;;;;5059388;28;20445;-66
2023/03/22 13:21:39;;;;;;;3.33;2.13;;;;;;;;;;5038292;28;20501;-66
2023/03/22 13:24:23;;;;;;;3.53;2.00;;;;;;;;;;5057693;28;20456;-66
2023/03/22 13:26:51;;;;;;;3.20;1.77;;;;;;;;;;5058031;28;20830;-66
2023/03/22 13:29:19;;;;;;;2.90;1.77;;;;;;;;;;5058613;28;20500;-66
2023/03/22 13:31:46;;;;;;;4.20;1.63;;;;;;;;;;5059273;28;20868;-66
2023/03/22 13:34:14;;;;;;;6.97;2.23;;;;;;;;;;5057695;28;20511;-65
2023/03/22 13:36:48;;;;;;;5.03;2.03;;;;;;;;;;5057107;28;20516;-66
2023/03/22 13:39:15;;;;;;;4.13;2.03;;;;;;;;;;5056679;28;20989;-66
2023/03/22 13:41:46;;;;;;;4.40;2.10;;;;;;;;;;5055746;28;20481;-65
2023/03/22 13:44:20;;;;;;;5.23;1.93;;;;;;;;;;5063066;28;20456;-65
2023/03/22 13:46:49;;;;;;;3.33;1.63;;;;;;;;;;5059804;28;20476;-65
2023/03/22 13:49:20;;;;;;;3.40;1.70;;;;;;;;;;5052457;28;20538;-66
2023/03/22 13:51:47;;;;;;;3.33;1.37;;;;;;;;;;5056834;28;20523;-65
2023/03/22 13:54:18;;;;;;;2.30;1.47;;;;;;;;;;5057181;28;20453;-66
2023/03/22 13:56:51;;;;;;;2.30;1.50;;;;;;;;;;5057414;28;21092;-66
2023/03/22 13:59:20;;;;;;;2.20;1.37;;;;;;;;;;5058838;28;20888;-68
2023/03/22 14:01:48;;;;;;;4.97;1.50;;;;;;;;;;5059889;28;20519;-66
2023/03/22 14:04:21;;;;;;;5.20;1.60;;;;;;;;;;5060868;28;20536;-66
2023/03/22 14:06:49;;;;;;;4.70;1.60;;;;;;;;;;5060249;28;20487;-67
2023/03/22 14:09:22;;;;;;;3.50;1.50;;;;;;;;;;5058182;28;20516;-67
2023/03/22 14:11:53;;;;;;;2.20;1.33;;;;;;;;;;5060490;28;20504;-68
2023/03/22 14:14:22;;;;;;;3.77;2.40;;;;;;;;;;5063120;28;20494;-68
2023/03/22 14:16:49;;;;;;;2.47;1.60;;;;;;;;;;5057909;28;20500;-67
2023/03/22 14:19:18;;;;;;;4.57;1.67;;;;;;;;;;5057602;28;20444;-67
2023/03/22 14:21:47;;;;;;;2.43;1.40;;;;;;;;;;5058081;28;20492;-67
2023/03/22 14:24:15;;;;;;;5.47;1.67;;;;;;;;;;5057961;28;20468;-68
2023/03/22 14:26:43;;;;;;;2.63;2.00;;;;;;;;;;5065930;28;20472;-68
2023/03/22 14:29:15;;;;;;;4.43;1.73;;;;;;;;;;5072948;28;20486;-67
2023/03/22 14:31:41;;;;;;;3.83;1.90;;;;;;;;;;5060328;28;20535;-68
2023/03/22 14:34:10;;;;;;;3.67;1.70;;;;;;;;;;5057623;28;20518;-67
2023/03/22 14:36:38;;;;;;;2.40;1.43;;;;;;;;;;5071882;28;20492;-68
2023/03/22 14:39:08;;;;;;;2.43;1.30;;;;;;;;;;5062068;28;21045;-68
2023/03/22 14:41:34;;;;;;;2.93;1.27;;;;;;;;;;5063669;28;20562;-68
2023/03/22 14:44:01;;;;;;;2.63;1.17;;;;;;;;;;5066659;28;20495;-68
2023/03/22 14:46:33;;;;;;;4.97;1.27;;;;;;;;;;5060653;28;20480;-68